createdAt,value
2023-05-10T00:01:24.934Z,99241.66
2023-05-10T00:03:53.074Z,99243.59
2023-05-10T00:06:22.507Z,99241.41
2023-05-10T00:08:50.511Z,99247.44
2023-05-10T00:11:18.796Z,99242.63
2023-05-10T00:13:47.686Z,99256.66
2023-05-10T00:16:15.944Z,99258.97
2023-05-10T00:18:43.980Z,99255.94
2023-05-10T00:21:11.912Z,99245.94
2023-05-10T00:23:41.242Z,99250.88
2023-05-10T00:26:09.395Z,99253.19
2023-05-10T00:28:39.011Z,99254.16
2023-05-10T00:31:07.013Z,99256.75
2023-05-10T00:33:34.803Z,99262.53
2023-05-10T00:36:02.784Z,99265.81
2023-05-10T00:38:30.594Z,99264.19
2023-05-10T00:40:59.735Z,99268.03
2023-05-10T00:43:31.847Z,99272.00
2023-05-10T00:45:59.952Z,99275.16
2023-05-10T00:48:27.940Z,99280.09
2023-05-10T00:50:56.624Z,99281.34
2023-05-10T00:53:24.538Z,99277.34
2023-05-10T00:55:53.526Z,99284.34
2023-05-10T00:58:24.503Z,99287.50
2023-05-10T01:00:53.461Z,99275.16
2023-05-10T01:03:21.823Z,99278.72
2023-05-10T01:05:50.144Z,99279.13
2023-05-10T01:08:18.180Z,99277.91
2023-05-10T01:10:46.720Z,99277.31
2023-05-10T01:13:15.247Z,99274.59
2023-05-10T01:15:44.606Z,99270.59
2023-05-10T01:18:12.909Z,99279.38
2023-05-10T01:20:45.374Z,99274.72
2023-05-10T01:23:20.027Z,99289.81
2023-05-10T01:26:07.381Z,99288.59
2023-05-10T01:28:44.689Z,99293.13
2023-05-10T01:31:25.120Z,99289.13
2023-05-10T01:33:57.175Z,99299.41
2023-05-10T01:36:32.137Z,99300.41
2023-05-10T01:39:03.463Z,99303.59
2023-05-10T01:41:38.452Z,99310.84
2023-05-10T01:44:10.079Z,99308.81
2023-05-10T01:46:39.315Z,99311.66
2023-05-10T01:49:10.644Z,99318.81
2023-05-10T01:51:41.616Z,99319.59
2023-05-10T01:54:11.849Z,99318.22
2023-05-10T01:56:40.117Z,99316.69
2023-05-10T01:59:10.828Z,99327.72
2023-05-10T02:01:38.821Z,99328.81
2023-05-10T02:04:08.573Z,99324.97
2023-05-10T02:06:39.952Z,99324.81
2023-05-10T02:09:10.150Z,99335.38
2023-05-10T02:11:39.591Z,99333.75
2023-05-10T02:14:08.047Z,99338.28
2023-05-10T02:16:37.403Z,99336.22
2023-05-10T02:19:05.226Z,99345.47
2023-05-10T02:21:34.094Z,99338.44
2023-05-10T02:24:04.616Z,99345.44
2023-05-10T02:26:33.549Z,99347.78
2023-05-10T02:29:04.326Z,99337.91
2023-05-10T02:31:33.200Z,99343.41
2023-05-10T02:34:02.110Z,99343.41
2023-05-10T02:36:30.802Z,99350.41
2023-05-10T02:38:59.146Z,99350.81
2023-05-10T02:41:29.074Z,99342.16
2023-05-10T02:43:59.331Z,99346.28
2023-05-10T02:46:26.975Z,99342.72
2023-05-10T02:48:54.815Z,99341.44
2023-05-10T02:51:26.594Z,99338.28
2023-05-10T02:53:55.619Z,99342.72
2023-05-10T02:56:27.039Z,99333.91
2023-05-10T02:58:57.003Z,99338.56
2023-05-10T03:01:25.271Z,99330.63
2023-05-10T03:03:53.004Z,99338.56
2023-05-10T03:06:21.054Z,99341.47
2023-05-10T03:08:49.038Z,99345.59
2023-05-10T03:11:27.647Z,99347.50
2023-05-10T03:14:08.010Z,99347.38
2023-05-10T03:16:37.987Z,99349.28
2023-05-10T03:19:12.144Z,99353.94
2023-05-10T03:21:42.466Z,99350.53
2023-05-10T03:24:12.831Z,99353.81
2023-05-10T03:26:42.752Z,99352.88
2023-05-10T03:29:17.061Z,99356.84
2023-05-10T03:31:45.556Z,99359.59
2023-05-10T03:34:13.321Z,99363.72
2023-05-10T03:36:41.093Z,99368.56
2023-05-10T03:39:09.520Z,99366.72
2023-05-10T03:41:38.338Z,99369.50
2023-05-10T03:44:06.226Z,99376.47
2023-05-10T03:46:35.316Z,99368.13
2023-05-10T03:49:04.205Z,99376.66
2023-05-10T03:51:32.354Z,99370.72
2023-05-10T03:54:00.376Z,99366.59
2023-05-10T03:56:28.273Z,99363.31
2023-05-10T03:58:56.247Z,99361.09
2023-05-10T04:01:24.231Z,99353.16
2023-05-10T04:03:53.638Z,99354.66
2023-05-10T04:06:21.828Z,99357.66
2023-05-10T04:08:49.679Z,99358.88
2023-05-10T04:11:18.221Z,99355.88
2023-05-10T04:13:45.999Z,99364.94
2023-05-10T04:16:14.070Z,99363.88
2023-05-10T04:18:42.040Z,99366.22
2023-05-10T04:21:14.908Z,99369.34
2023-05-10T04:23:43.176Z,99372.09
2023-05-10T04:26:11.021Z,99384.16
2023-05-10T04:28:38.973Z,99380.44
2023-05-10T04:31:07.394Z,99383.00
2023-05-10T04:33:36.488Z,99387.72
2023-05-10T04:36:05.530Z,99396.13
2023-05-10T04:38:34.702Z,99391.44
2023-05-10T04:41:06.086Z,99396.78
2023-05-10T04:43:34.029Z,99401.59
2023-05-10T04:46:03.342Z,99405.97
2023-05-10T04:48:31.956Z,99409.56
2023-05-10T04:51:00.167Z,99409.13
2023-05-10T04:53:28.285Z,99413.91
2023-05-10T04:55:57.545Z,99415.56
2023-05-10T04:58:25.540Z,99420.63
2023-05-10T05:00:53.861Z,99427.59
2023-05-10T05:03:21.971Z,99426.84
2023-05-10T05:05:49.784Z,99426.03
2023-05-10T05:08:17.790Z,99433.84
2023-05-10T05:10:45.601Z,99441.44
2023-05-10T05:13:15.826Z,99448.91
2023-05-10T05:15:44.091Z,99448.84
2023-05-10T05:18:11.635Z,99454.50
2023-05-10T05:20:40.127Z,99454.13
2023-05-10T05:23:08.219Z,99450.09
2023-05-10T05:25:36.584Z,99455.25
2023-05-10T05:28:04.626Z,99455.94
2023-05-10T05:30:33.790Z,99456.31
2023-05-10T05:33:01.888Z,99462.50
2023-05-10T05:35:30.048Z,99459.59
2023-05-10T05:37:57.554Z,99461.81
2023-05-10T05:40:25.378Z,99462.00
2023-05-10T05:42:53.180Z,99473.16
2023-05-10T05:45:21.131Z,99470.66
2023-05-10T05:47:51.323Z,99469.81
2023-05-10T05:50:19.701Z,99472.03
2023-05-10T05:52:47.401Z,99474.44
2023-05-10T05:55:16.341Z,99476.28
2023-05-10T05:57:45.175Z,99485.78
2023-05-10T06:00:14.688Z,99491.34
2023-05-10T06:02:43.378Z,99495.94
2023-05-10T06:05:16.258Z,99504.38
2023-05-10T06:07:44.687Z,99513.75
2023-05-10T06:10:12.957Z,99519.38
2023-05-10T06:12:41.062Z,99518.50
2023-05-10T06:15:10.944Z,99516.78
2023-05-10T06:17:40.274Z,99521.25
2023-05-10T06:20:10.296Z,99528.97
2023-05-10T06:22:39.868Z,99532.78
2023-05-10T06:25:09.681Z,99534.88
2023-05-10T06:27:41.229Z,99538.28
2023-05-10T06:30:13.265Z,99544.00
2023-05-10T06:32:41.787Z,99554.41
2023-05-10T06:35:11.200Z,99556.38
2023-05-10T06:37:40.928Z,99557.69
2023-05-10T06:40:10.450Z,99559.22
2023-05-10T06:42:40.974Z,99564.47
2023-05-10T06:45:11.572Z,99558.88
2023-05-10T06:47:40.046Z,99559.59
2023-05-10T06:50:09.023Z,99562.00
2023-05-10T06:52:44.975Z,99567.09
2023-05-10T06:55:18.297Z,99568.41
2023-05-10T06:57:46.671Z,99565.91
2023-05-10T07:00:15.679Z,99575.16
2023-05-10T07:02:44.536Z,99580.88
2023-05-10T07:05:13.034Z,99583.41
2023-05-10T07:07:41.267Z,99576.91
2023-05-10T07:10:09.400Z,99583.03
2023-05-10T07:12:39.145Z,99580.53
2023-05-10T07:15:07.504Z,99584.25
2023-05-10T07:17:35.316Z,99585.84
2023-05-10T07:20:04.458Z,99585.66
2023-05-10T07:22:32.201Z,99593.69
2023-05-10T07:24:59.859Z,99594.06
2023-05-10T07:27:27.772Z,99596.03
2023-05-10T07:29:57.674Z,99593.84
2023-05-10T07:32:25.398Z,99595.75
2023-05-10T07:34:53.498Z,99601.28
2023-05-10T07:37:21.333Z,99600.66
2023-05-10T07:39:48.981Z,99604.47
2023-05-10T07:42:16.840Z,99607.16
2023-05-10T07:44:44.754Z,99618.88
2023-05-10T07:47:13.838Z,99612.53
2023-05-10T07:49:41.752Z,99613.19
2023-05-10T07:52:09.790Z,99619.72
2023-05-10T07:54:38.487Z,99611.94
2023-05-10T07:57:06.221Z,99609.59
2023-05-10T07:59:34.184Z,99613.28
2023-05-10T08:02:02.044Z,99612.84
2023-05-10T08:04:31.210Z,99615.03
2023-05-10T08:06:58.942Z,99629.81
2023-05-10T08:09:26.755Z,99619.44
2023-05-10T08:11:54.685Z,99617.13
2023-05-10T08:14:22.345Z,99621.63
2023-05-10T08:16:50.051Z,99629.66
2023-05-10T08:19:20.193Z,99616.78
2023-05-10T08:21:49.602Z,99627.56
2023-05-10T08:24:17.344Z,99628.34
2023-05-10T08:26:45.128Z,99629.06
2023-05-10T08:29:12.965Z,99630.53
2023-05-10T08:31:40.678Z,99621.25
2023-05-10T08:34:08.578Z,99630.41
2023-05-10T08:36:37.228Z,99618.81
2023-05-10T08:39:13.570Z,99620.97
2023-05-10T08:41:48.695Z,99627.38
2023-05-10T08:44:17.924Z,99629.81
2023-05-10T08:46:47.922Z,99629.41
2023-05-10T08:49:18.739Z,99630.00
2023-05-10T08:51:49.042Z,99631.19
2023-05-10T08:54:18.179Z,99642.41
2023-05-10T08:56:46.915Z,99636.22
2023-05-10T08:59:17.335Z,99636.84
2023-05-10T09:01:46.685Z,99637.31
2023-05-10T09:04:14.767Z,99627.50
2023-05-10T09:06:42.773Z,99636.63
2023-05-10T09:09:11.012Z,99632.22
2023-05-10T09:11:40.056Z,99620.06
2023-05-10T09:14:08.196Z,99582.06
2023-05-10T09:16:35.971Z,99573.94
2023-05-10T09:19:03.673Z,99583.34
2023-05-10T09:21:32.417Z,99570.44
2023-05-10T09:24:04.920Z,99595.88
2023-05-10T09:26:32.462Z,99595.31
2023-05-10T09:29:03.598Z,99582.13
2023-05-10T09:31:47.818Z,99587.22
2023-05-10T09:34:19.981Z,99586.25
2023-05-10T09:36:54.790Z,99597.78
2023-05-10T09:39:23.126Z,99615.69
2023-05-10T09:41:50.760Z,99612.78
2023-05-10T09:44:21.664Z,99598.78
2023-05-10T09:46:53.634Z,99601.94
2023-05-10T09:49:21.803Z,99615.81
2023-05-10T09:51:49.515Z,99614.25
2023-05-10T09:54:18.129Z,99612.38
2023-05-10T09:56:45.979Z,99605.38
2023-05-10T09:59:14.372Z,99612.78
2023-05-10T10:01:43.645Z,99627.53
2023-05-10T10:04:11.813Z,99636.88
2023-05-10T10:06:40.133Z,99628.34
2023-05-10T10:09:08.672Z,99635.38
2023-05-10T10:11:37.225Z,99639.88
2023-05-10T10:14:04.896Z,99639.31
2023-05-10T10:16:33.058Z,99654.78
2023-05-10T10:19:03.052Z,99651.16
2023-05-10T10:21:32.109Z,99652.13
2023-05-10T10:23:59.805Z,99657.06
2023-05-10T10:26:27.640Z,99664.88
2023-05-10T10:29:02.377Z,99668.66
2023-05-10T10:31:34.629Z,99664.63
2023-05-10T10:34:08.038Z,99668.63
2023-05-10T10:36:41.757Z,99679.13
2023-05-10T10:39:11.646Z,99675.03
2023-05-10T10:41:41.899Z,99671.94
2023-05-10T10:44:28.528Z,99660.09
2023-05-10T10:47:19.667Z,99664.00
2023-05-10T10:49:53.428Z,99662.25
2023-05-10T10:52:27.739Z,99657.88
2023-05-10T10:54:59.962Z,99659.41
2023-05-10T10:57:28.397Z,99673.31
2023-05-10T11:00:20.294Z,99688.06
2023-05-10T11:02:49.968Z,99689.19
2023-05-10T11:05:36.017Z,99692.44
2023-05-10T11:08:09.546Z,99694.94
2023-05-10T11:10:37.726Z,99700.00
2023-05-10T11:13:06.604Z,99703.63
2023-05-10T11:15:35.316Z,99695.41
2023-05-10T11:18:18.627Z,99701.53
2023-05-10T11:20:51.811Z,99707.53
2023-05-10T11:23:21.041Z,99707.25
2023-05-10T11:25:50.692Z,99696.53
2023-05-10T11:28:19.776Z,99699.53
2023-05-10T11:30:47.887Z,99704.38
2023-05-10T11:33:19.056Z,99700.09
2023-05-10T11:35:48.384Z,99701.94
2023-05-10T11:38:16.235Z,99709.94
2023-05-10T11:40:44.013Z,99716.38
2023-05-10T11:43:13.276Z,99720.31
2023-05-10T11:45:42.030Z,99723.19
2023-05-10T11:48:10.827Z,99727.91
2023-05-10T11:50:39.548Z,99731.44
2023-05-10T11:53:08.765Z,99726.13
2023-05-10T11:55:36.839Z,99726.63
2023-05-10T11:58:04.676Z,99717.09
2023-05-10T12:00:32.791Z,99722.38
2023-05-10T12:03:01.127Z,99726.66
2023-05-10T12:05:28.813Z,99721.38
2023-05-10T12:08:11.413Z,99725.59
2023-05-10T12:10:41.166Z,99732.75
2023-05-10T12:13:13.149Z,99721.16
2023-05-10T12:15:40.842Z,99725.84
2023-05-10T12:18:11.296Z,99714.94
2023-05-10T12:20:39.904Z,99725.31
2023-05-10T12:23:09.796Z,99719.47
2023-05-10T12:25:38.502Z,99728.94
2023-05-10T12:28:08.477Z,99727.16
2023-05-10T12:30:37.459Z,99726.50
2023-05-10T12:33:09.450Z,99716.44
2023-05-10T12:35:45.841Z,99713.09
2023-05-10T12:38:30.647Z,99715.31
2023-05-10T12:40:59.134Z,99726.97
2023-05-10T12:43:28.371Z,99720.59
2023-05-10T12:45:55.954Z,99727.84
2023-05-10T12:48:23.874Z,99726.47
2023-05-10T12:50:51.896Z,99721.25
2023-05-10T12:53:19.751Z,99738.66
2023-05-10T12:55:47.740Z,99746.59
2023-05-10T12:58:31.551Z,99728.97
2023-05-10T13:01:04.162Z,99738.13
2023-05-10T13:03:32.145Z,99733.91
2023-05-10T13:05:59.964Z,99733.03
2023-05-10T13:08:27.628Z,99736.75
2023-05-10T13:10:55.829Z,99736.16
2023-05-10T13:13:23.808Z,99737.41
2023-05-10T13:15:51.799Z,99721.56
2023-05-10T13:18:21.567Z,99732.16
2023-05-10T13:20:50.585Z,99735.97
2023-05-10T13:23:18.424Z,99740.34
2023-05-10T13:25:46.431Z,99726.38
2023-05-10T13:28:14.331Z,99739.84
2023-05-10T13:30:41.808Z,99737.09
2023-05-10T13:33:09.554Z,99730.88
2023-05-10T13:35:38.870Z,99725.09
2023-05-10T13:38:08.732Z,99731.34
2023-05-10T13:40:36.932Z,99735.78
2023-05-10T13:43:04.852Z,99735.28
2023-05-10T13:45:32.548Z,99729.34
2023-05-10T13:48:00.642Z,99735.47
2023-05-10T13:50:28.872Z,99731.63
2023-05-10T13:52:57.969Z,99735.38
2023-05-10T13:55:26.343Z,99732.16
2023-05-10T13:57:54.091Z,99734.72
2023-05-10T14:00:22.165Z,99729.16
2023-05-10T14:02:49.856Z,99728.94
2023-05-10T14:05:19.918Z,99725.41
2023-05-10T14:07:49.893Z,99722.66
2023-05-10T14:10:19.169Z,99724.44
2023-05-10T14:12:46.972Z,99718.13
2023-05-10T14:15:14.988Z,99721.63
2023-05-10T14:17:42.780Z,99726.66
2023-05-10T14:20:11.525Z,99723.53
2023-05-10T14:22:39.196Z,99714.53
2023-05-10T14:25:07.645Z,99726.22
2023-05-10T14:27:36.975Z,99724.38
2023-05-10T14:30:04.789Z,99719.47
2023-05-10T14:32:33.212Z,99727.34
2023-05-10T14:35:01.081Z,99718.69
2023-05-10T14:37:29.006Z,99707.91
2023-05-10T14:39:56.748Z,99714.53
2023-05-10T14:42:24.605Z,99710.66
2023-05-10T14:44:53.866Z,99714.56
2023-05-10T14:47:21.889Z,99712.34
2023-05-10T14:49:49.697Z,99713.50
2023-05-10T14:52:18.306Z,99717.84
2023-05-10T14:54:46.276Z,99720.03
2023-05-10T14:57:13.862Z,99710.88
2023-05-10T14:59:41.509Z,99722.63
2023-05-10T15:02:11.469Z,99706.72
2023-05-10T15:04:39.734Z,99715.97
2023-05-10T15:07:07.894Z,99720.69
2023-05-10T15:09:36.347Z,99713.72
2023-05-10T15:12:04.073Z,99718.91
2023-05-10T15:14:32.486Z,99718.19
2023-05-10T15:17:00.129Z,99710.72
2023-05-10T15:19:30.215Z,99713.53
2023-05-10T15:21:57.911Z,99704.28
2023-05-10T15:24:25.817Z,99718.09
2023-05-10T15:26:53.616Z,99720.63
2023-05-10T15:29:42.622Z,99722.34
2023-05-10T15:32:10.782Z,99721.13
2023-05-10T15:34:40.150Z,99721.88
2023-05-10T15:37:08.422Z,99730.41
2023-05-10T15:39:36.514Z,99728.91
2023-05-10T15:42:05.120Z,99725.66
2023-05-10T15:44:34.657Z,99728.84
2023-05-10T15:47:03.382Z,99733.81
2023-05-10T15:49:32.080Z,99738.28
2023-05-10T15:52:01.361Z,99731.72
2023-05-10T15:54:29.284Z,99732.06
2023-05-10T15:56:57.610Z,99740.91
2023-05-10T15:59:26.030Z,99737.31
2023-05-10T16:01:54.317Z,99738.59
2023-05-10T16:04:22.742Z,99731.75
2023-05-10T16:06:51.004Z,99731.50
2023-05-10T16:09:20.461Z,99736.56
2023-05-10T16:11:48.641Z,99744.66
2023-05-10T16:14:17.473Z,99736.13
2023-05-10T16:16:46.167Z,99740.94
2023-05-10T16:19:14.617Z,99746.41
2023-05-10T16:21:42.692Z,99741.69
2023-05-10T16:24:11.343Z,99744.88
2023-05-10T16:26:44.262Z,99744.00
2023-05-10T16:29:12.524Z,99750.69
2023-05-10T16:31:40.783Z,99750.19
2023-05-10T16:34:08.909Z,99758.63
2023-05-10T16:36:36.932Z,99760.28
2023-05-10T16:39:05.697Z,99762.44
2023-05-10T16:41:34.932Z,99758.38
2023-05-10T16:44:04.818Z,99770.13
2023-05-10T16:46:33.454Z,99753.47
2023-05-10T16:49:01.744Z,99758.78
2023-05-10T16:51:30.264Z,99754.88
2023-05-10T16:53:58.394Z,99763.06
2023-05-10T16:56:27.370Z,99764.00
2023-05-10T16:58:55.557Z,99763.28
2023-05-10T17:01:27.025Z,99752.69
2023-05-10T17:03:55.187Z,99751.25
2023-05-10T17:06:23.627Z,99758.75
2023-05-10T17:08:51.847Z,99756.91
2023-05-10T17:11:21.900Z,99756.25
2023-05-10T17:13:49.905Z,99759.13
2023-05-10T17:16:17.635Z,99757.13
2023-05-10T17:18:47.107Z,99759.03
2023-05-10T17:21:15.432Z,99758.19
2023-05-10T17:23:43.167Z,99760.38
2023-05-10T17:26:10.885Z,99758.56
2023-05-10T17:28:38.693Z,99763.91
2023-05-10T17:31:06.271Z,99763.81
2023-05-10T17:33:34.174Z,99753.31
2023-05-10T17:36:03.974Z,99763.66
2023-05-10T17:38:33.694Z,99773.56
2023-05-10T17:41:02.381Z,99773.25
2023-05-10T17:43:31.284Z,99768.19
2023-05-10T17:45:58.802Z,99763.84
2023-05-10T17:48:27.068Z,99767.09
2023-05-10T17:50:55.197Z,99766.75
2023-05-10T17:53:24.353Z,99778.16
2023-05-10T17:55:52.362Z,99771.28
2023-05-10T17:58:20.897Z,99773.19
2023-05-10T18:00:49.073Z,99776.47
2023-05-10T18:03:17.099Z,99777.81
2023-05-10T18:05:45.557Z,99780.41
2023-05-10T18:08:13.885Z,99777.63
2023-05-10T18:10:43.331Z,99775.75
2023-05-10T18:13:11.841Z,99770.03
2023-05-10T18:15:39.781Z,99782.03
2023-05-10T18:18:07.883Z,99775.47
2023-05-10T18:20:35.876Z,99774.63
2023-05-10T18:23:03.518Z,99780.34
2023-05-10T18:25:31.497Z,99779.66
2023-05-10T18:28:00.608Z,99775.81
2023-05-10T18:30:28.459Z,99782.22
2023-05-10T18:32:56.279Z,99784.28
2023-05-10T18:35:23.861Z,99786.56
2023-05-10T18:38:00.270Z,99783.69
2023-05-10T18:40:28.637Z,99785.25
2023-05-10T18:42:56.882Z,99790.78
2023-05-10T18:45:24.979Z,99781.63
2023-05-10T18:47:52.559Z,99782.28
2023-05-10T18:50:20.864Z,99779.84
2023-05-10T18:52:48.860Z,99780.09
2023-05-10T18:55:18.720Z,99786.00
2023-05-10T18:57:47.047Z,99787.78
2023-05-10T19:00:15.131Z,99789.00
2023-05-10T19:02:42.980Z,99794.66
2023-05-10T19:05:11.521Z,99798.72
2023-05-10T19:07:40.902Z,99789.69
2023-05-10T19:10:09.007Z,99796.75
2023-05-10T19:12:39.380Z,99799.13
2023-05-10T19:15:07.986Z,99801.75
2023-05-10T19:17:36.897Z,99806.31
2023-05-10T19:20:05.587Z,99805.88
2023-05-10T19:22:45.415Z,99806.16
2023-05-10T19:25:22.136Z,99809.50
2023-05-10T19:27:53.465Z,99808.97
2023-05-10T19:30:21.786Z,99806.91
2023-05-10T19:32:49.960Z,99804.84
2023-05-10T19:35:18.375Z,99805.94
2023-05-10T19:37:47.432Z,99812.56
2023-05-10T19:40:16.436Z,99808.72
2023-05-10T19:42:44.284Z,99807.19
2023-05-10T19:45:15.964Z,99806.94
2023-05-10T19:47:44.803Z,99806.50
2023-05-10T19:50:14.037Z,99805.13
2023-05-10T19:52:41.854Z,99810.78
2023-05-10T19:55:10.175Z,99813.94
2023-05-10T19:57:38.349Z,99815.44
2023-05-10T20:00:07.678Z,99812.69
2023-05-10T20:02:40.516Z,99813.91
2023-05-10T20:05:11.691Z,99814.97
2023-05-10T20:07:39.763Z,99825.00
2023-05-10T20:10:08.496Z,99819.84
2023-05-10T20:12:37.197Z,99824.53
2023-05-10T20:15:08.040Z,99822.84
2023-05-10T20:17:36.843Z,99828.22
2023-05-10T20:20:07.015Z,99818.16
2023-05-10T20:22:34.732Z,99827.06
2023-05-10T20:25:03.032Z,99830.88
2023-05-10T20:27:30.515Z,99834.81
2023-05-10T20:29:58.383Z,99841.75
2023-05-10T20:32:27.822Z,99837.00
2023-05-10T20:34:55.521Z,99840.38
2023-05-10T20:37:24.785Z,99842.59
2023-05-10T20:39:52.616Z,99842.22
2023-05-10T20:42:20.452Z,99846.19
2023-05-10T20:44:48.111Z,99843.38
2023-05-10T20:47:16.369Z,99847.38
2023-05-10T20:49:44.232Z,99851.41
2023-05-10T20:52:11.780Z,99850.06
2023-05-10T20:54:40.877Z,99847.28
2023-05-10T20:57:08.805Z,99848.84
2023-05-10T20:59:36.640Z,99848.84
2023-05-10T21:02:04.403Z,99842.34
2023-05-10T21:04:32.122Z,99850.44
2023-05-10T21:07:02.348Z,99841.03
2023-05-10T21:09:30.381Z,99848.63
2023-05-10T21:12:03.286Z,99849.72
2023-05-10T21:14:31.138Z,99855.22
2023-05-10T21:16:58.997Z,99856.19
2023-05-10T21:19:26.966Z,99853.00
2023-05-10T21:21:56.199Z,99861.59
2023-05-10T21:24:24.288Z,99849.47
2023-05-10T21:26:52.163Z,99855.28
2023-05-10T21:29:21.012Z,99848.34
2023-05-10T21:31:49.173Z,99841.38
2023-05-10T21:34:18.176Z,99850.28
2023-05-10T21:36:46.032Z,99853.84
2023-05-10T21:39:14.143Z,99846.84
2023-05-10T21:41:42.429Z,99849.53
2023-05-10T21:44:10.304Z,99841.53
2023-05-10T21:46:39.401Z,99850.66
2023-05-10T21:49:07.092Z,99851.31
2023-05-10T21:51:34.727Z,99848.97
2023-05-10T21:54:02.606Z,99841.53
2023-05-10T21:56:30.365Z,99855.50
2023-05-10T21:58:58.509Z,99850.50
2023-05-10T22:01:27.032Z,99846.25
2023-05-10T22:03:55.881Z,99845.53
2023-05-10T22:06:24.062Z,99847.88
2023-05-10T22:08:51.937Z,99848.03
2023-05-10T22:11:19.920Z,99843.66
2023-05-10T22:13:47.608Z,99848.13
2023-05-10T22:16:15.827Z,99858.53
2023-05-10T22:18:43.918Z,99855.72
2023-05-10T22:21:12.981Z,99856.78
2023-05-10T22:23:40.752Z,99847.00
2023-05-10T22:26:08.474Z,99845.91
2023-05-10T22:28:36.291Z,99856.50
2023-05-10T22:31:04.154Z,99857.56
2023-05-10T22:33:32.021Z,99862.19
2023-05-10T22:35:59.711Z,99859.81
2023-05-10T22:38:29.070Z,99858.78
2023-05-10T22:40:56.758Z,99855.47
2023-05-10T22:43:24.580Z,99850.13
2023-05-10T22:45:52.318Z,99852.56
2023-05-10T22:48:20.936Z,99848.94
2023-05-10T22:50:48.756Z,99853.63
2023-05-10T22:53:17.501Z,99843.25
2023-05-10T22:55:47.071Z,99850.44
2023-05-10T22:58:15.266Z,99853.03
2023-05-10T23:00:43.066Z,99842.06
2023-05-10T23:03:11.185Z,99849.25
2023-05-10T23:05:38.904Z,99852.94
2023-05-10T23:08:07.262Z,99862.28
2023-05-10T23:10:35.099Z,99856.72
2023-05-10T23:13:04.112Z,99864.31
2023-05-10T23:15:33.040Z,99857.66
2023-05-10T23:18:01.728Z,99861.47
2023-05-10T23:20:29.883Z,99863.59
2023-05-10T23:22:57.528Z,99861.81
2023-05-10T23:25:25.603Z,99867.13
2023-05-10T23:27:53.355Z,99860.28
2023-05-10T23:30:22.451Z,99866.44
2023-05-10T23:32:50.003Z,99861.94
2023-05-10T23:35:17.883Z,99860.50
2023-05-10T23:37:46.013Z,99863.31
2023-05-10T23:40:14.364Z,99858.69
2023-05-10T23:42:41.921Z,99859.44
2023-05-10T23:45:09.772Z,99862.84
2023-05-10T23:47:38.873Z,99863.44
2023-05-10T23:50:07.315Z,99859.66
2023-05-10T23:52:35.207Z,99858.84
2023-05-10T23:55:02.773Z,99850.28
2023-05-10T23:57:30.626Z,99848.06
2023-05-10T23:59:58.230Z,99848.53
